sensor_id;sensor_type;location;lat;lon;timestamp;pressure;altitude;pressure_sealevel;temperature;humidity
6833;BME280;3454;42.654;23.378;2022-08-19T00:00:28;94197.66;;;22.63;68.55
6833;BME280;3454;42.654;23.378;2022-08-19T00:02:54;94194.34;;;22.56;69.04
6833;BME280;3454;42.654;23.378;2022-08-19T00:05:21;94207.63;;;22.66;68.77
6833;BME280;3454;42.654;23.378;2022-08-19T00:07:48;94202.44;;;22.66;69.66
6833;BME280;3454;42.654;23.378;2022-08-19T00:10:15;94227.00;;;22.82;67.98
6833;BME280;3454;42.654;23.378;2022-08-19T00:12:41;94217.72;;;22.74;68.68
6833;BME280;3454;42.654;23.378;2022-08-19T00:15:10;94217.25;;;22.77;68.84
6833;BME280;3454;42.654;23.378;2022-08-19T00:17:40;94237.31;;;22.88;67.88
6833;BME280;3454;42.654;23.378;2022-08-19T00:20:07;94246.16;;;22.99;67.40
6833;BME280;3454;42.654;23.378;2022-08-19T00:22:33;94240.84;;;22.94;68.22
6833;BME280;3454;42.654;23.378;2022-08-19T00:24:58;94242.34;;;23.01;68.31
6833;BME280;3454;42.654;23.378;2022-08-19T00:27:24;94249.03;;;23.09;68.18
6833;BME280;3454;42.654;23.378;2022-08-19T00:29:50;94240.31;;;23.03;68.52
6833;BME280;3454;42.654;23.378;2022-08-19T00:32:16;94248.84;;;23.10;68.34
6833;BME280;3454;42.654;23.378;2022-08-19T00:34:41;94259.63;;;23.25;68.23
6833;BME280;3454;42.654;23.378;2022-08-19T00:37:07;94252.16;;;23.17;68.69
6833;BME280;3454;42.654;23.378;2022-08-19T00:39:32;94256.41;;;23.30;68.50
6833;BME280;3454;42.654;23.378;2022-08-19T00:41:57;94249.41;;;23.30;68.32
6833;BME280;3454;42.654;23.378;2022-08-19T00:44:27;94250.00;;;23.14;68.46
6833;BME280;3454;42.654;23.378;2022-08-19T00:46:54;94258.47;;;23.21;67.86
6833;BME280;3454;42.654;23.378;2022-08-19T00:49:47;94248.03;;;23.10;68.01
6833;BME280;3454;42.654;23.378;2022-08-19T00:52:37;94240.03;;;22.93;68.83
6833;BME280;3454;42.654;23.378;2022-08-19T00:55:06;94255.75;;;22.98;67.87
6833;BME280;3454;42.654;23.378;2022-08-19T00:57:38;94263.84;;;23.08;67.47
6833;BME280;3454;42.654;23.378;2022-08-19T01:00:12;94250.69;;;23.03;67.96
6833;BME280;3454;42.654;23.378;2022-08-19T01:02:40;94258.41;;;23.10;67.85
6833;BME280;3454;42.654;23.378;2022-08-19T01:05:09;94250.28;;;23.06;68.63
6833;BME280;3454;42.654;23.378;2022-08-19T01:07:37;94255.88;;;23.03;68.06
6833;BME280;3454;42.654;23.378;2022-08-19T01:10:06;94256.91;;;23.02;68.84
6833;BME280;3454;42.654;23.378;2022-08-19T01:12:32;94242.56;;;23.00;69.22
6833;BME280;3454;42.654;23.378;2022-08-19T01:14:58;94252.78;;;23.13;68.48
6833;BME280;3454;42.654;23.378;2022-08-19T01:17:24;94250.94;;;23.02;68.70
6833;BME280;3454;42.654;23.378;2022-08-19T01:19:51;94250.84;;;22.90;68.38
6833;BME280;3454;42.654;23.378;2022-08-19T01:24:48;94251.41;;;22.74;68.19
6833;BME280;3454;42.654;23.378;2022-08-19T01:27:14;94246.50;;;22.66;68.66
6833;BME280;3454;42.654;23.378;2022-08-19T01:29:42;94251.28;;;22.63;68.58
6833;BME280;3454;42.654;23.378;2022-08-19T01:32:12;94238.66;;;22.48;69.55
6833;BME280;3454;42.654;23.378;2022-08-19T01:34:38;94228.25;;;22.30;70.17
6833;BME280;3454;42.654;23.378;2022-08-19T01:37:09;94220.53;;;22.23;70.91
6833;BME280;3454;42.654;23.378;2022-08-19T01:39:37;94213.50;;;22.06;71.90
6833;BME280;3454;42.654;23.378;2022-08-19T01:42:03;94197.09;;;21.87;73.22
6833;BME280;3454;42.654;23.378;2022-08-19T01:44:30;94185.97;;;21.73;73.91
6833;BME280;3454;42.654;23.378;2022-08-19T01:46:56;94189.72;;;21.53;75.59
6833;BME280;3454;42.654;23.378;2022-08-19T01:49:23;94196.31;;;21.42;76.16
6833;BME280;3454;42.654;23.378;2022-08-19T01:51:50;94188.50;;;21.11;77.70
6833;BME280;3454;42.654;23.378;2022-08-19T01:54:18;94208.03;;;21.01;78.63
6833;BME280;3454;42.654;23.378;2022-08-19T01:56:44;94203.19;;;21.17;78.29
6833;BME280;3454;42.654;23.378;2022-08-19T01:59:16;94228.78;;;21.32;76.94
6833;BME280;3454;42.654;23.378;2022-08-19T02:01:43;94238.09;;;21.39;76.81
6833;BME280;3454;42.654;23.378;2022-08-19T02:04:08;94224.63;;;21.31;77.79
6833;BME280;3454;42.654;23.378;2022-08-19T02:06:34;94215.13;;;21.18;78.06
6833;BME280;3454;42.654;23.378;2022-08-19T02:09:00;94227.63;;;21.21;78.57
6833;BME280;3454;42.654;23.378;2022-08-19T02:11:32;94210.94;;;21.24;79.13
6833;BME280;3454;42.654;23.378;2022-08-19T02:14:00;94254.22;;;21.41;77.37
6833;BME280;3454;42.654;23.378;2022-08-19T02:16:27;94266.09;;;21.55;76.49
6833;BME280;3454;42.654;23.378;2022-08-19T02:18:52;94248.41;;;21.52;77.42
6833;BME280;3454;42.654;23.378;2022-08-19T02:21:20;94243.22;;;21.59;77.27
6833;BME280;3454;42.654;23.378;2022-08-19T02:23:46;94248.75;;;21.62;77.47
6833;BME280;3454;42.654;23.378;2022-08-19T02:26:12;94247.75;;;21.63;77.71
6833;BME280;3454;42.654;23.378;2022-08-19T02:28:39;94269.56;;;21.81;76.63
6833;BME280;3454;42.654;23.378;2022-08-19T02:31:13;94256.88;;;21.72;77.12
6833;BME280;3454;42.654;23.378;2022-08-19T02:33:40;94260.25;;;21.73;77.49
6833;BME280;3454;42.654;23.378;2022-08-19T02:36:07;94262.84;;;21.73;77.27
6833;BME280;3454;42.654;23.378;2022-08-19T02:38:33;94256.03;;;21.79;77.08
6833;BME280;3454;42.654;23.378;2022-08-19T02:41:02;94266.69;;;22.02;76.66
6833;BME280;3454;42.654;23.378;2022-08-19T02:43:30;94264.72;;;21.97;77.34
6833;BME280;3454;42.654;23.378;2022-08-19T02:45:56;94257.22;;;21.89;77.55
6833;BME280;3454;42.654;23.378;2022-08-19T02:48:23;94259.44;;;21.79;77.39
6833;BME280;3454;42.654;23.378;2022-08-19T02:50:51;94260.28;;;21.66;77.93
6833;BME280;3454;42.654;23.378;2022-08-19T02:53:24;94242.47;;;21.45;78.38
6833;BME280;3454;42.654;23.378;2022-08-19T02:55:51;94253.44;;;21.41;78.24
6833;BME280;3454;42.654;23.378;2022-08-19T02:58:18;94268.97;;;21.41;77.60
6833;BME280;3454;42.654;23.378;2022-08-19T03:00:47;94248.28;;;21.34;78.52
6833;BME280;3454;42.654;23.378;2022-08-19T03:03:14;94284.06;;;21.37;76.70
6833;BME280;3454;42.654;23.378;2022-08-19T03:05:41;94270.97;;;21.32;77.77
6833;BME280;3454;42.654;23.378;2022-08-19T03:08:07;94273.00;;;21.24;77.56
6833;BME280;3454;42.654;23.378;2022-08-19T03:10:40;94285.09;;;21.30;76.83
6833;BME280;3454;42.654;23.378;2022-08-19T03:13:07;94254.72;;;21.12;77.83
6833;BME280;3454;42.654;23.378;2022-08-19T03:15:33;94249.19;;;21.02;78.27
6833;BME280;3454;42.654;23.378;2022-08-19T03:17:59;94240.81;;;21.00;78.94
6833;BME280;3454;42.654;23.378;2022-08-19T03:20:24;94221.78;;;20.81;79.85
6833;BME280;3454;42.654;23.378;2022-08-19T03:22:51;94209.50;;;20.64;80.97
6833;BME280;3454;42.654;23.378;2022-08-19T03:25:16;94214.28;;;20.60;81.60
6833;BME280;3454;42.654;23.378;2022-08-19T03:27:42;94192.63;;;20.48;82.19
6833;BME280;3454;42.654;23.378;2022-08-19T03:30:09;94195.63;;;20.39;82.88
6833;BME280;3454;42.654;23.378;2022-08-19T03:32:35;94205.16;;;20.45;82.88
6833;BME280;3454;42.654;23.378;2022-08-19T03:35:01;94205.94;;;20.39;83.13
6833;BME280;3454;42.654;23.378;2022-08-19T03:37:27;94201.75;;;20.44;84.02
6833;BME280;3454;42.654;23.378;2022-08-19T03:39:53;94216.06;;;20.53;83.05
6833;BME280;3454;42.654;23.378;2022-08-19T03:42:19;94234.53;;;20.57;82.81
6833;BME280;3454;42.654;23.378;2022-08-19T03:44:44;94253.59;;;20.75;81.88
6833;BME280;3454;42.654;23.378;2022-08-19T03:47:10;94260.75;;;20.73;81.56
6833;BME280;3454;42.654;23.378;2022-08-19T03:49:45;94253.78;;;20.80;82.11
6833;BME280;3454;42.654;23.378;2022-08-19T03:52:11;94269.47;;;20.92;81.24
6833;BME280;3454;42.654;23.378;2022-08-19T03:54:37;94275.81;;;20.89;80.91
6833;BME280;3454;42.654;23.378;2022-08-19T03:57:03;94282.19;;;20.87;80.60
6833;BME280;3454;42.654;23.378;2022-08-19T03:59:32;94288.53;;;20.91;79.92
6833;BME280;3454;42.654;23.378;2022-08-19T04:02:00;94282.19;;;20.87;80.61
6833;BME280;3454;42.654;23.378;2022-08-19T04:04:27;94305.66;;;20.92;79.62
6833;BME280;3454;42.654;23.378;2022-08-19T04:06:53;94296.50;;;20.96;80.40
6833;BME280;3454;42.654;23.378;2022-08-19T04:09:20;94310.59;;;21.00;79.82
6833;BME280;3454;42.654;23.378;2022-08-19T04:11:48;94318.75;;;20.97;79.26
6833;BME280;3454;42.654;23.378;2022-08-19T04:14:19;94305.44;;;20.87;79.66
6833;BME280;3454;42.654;23.378;2022-08-19T04:16:46;94296.34;;;20.78;80.54
6833;BME280;3454;42.654;23.378;2022-08-19T04:19:13;94295.13;;;20.80;80.76
6833;BME280;3454;42.654;23.378;2022-08-19T04:21:43;94297.31;;;20.77;80.53
6833;BME280;3454;42.654;23.378;2022-08-19T04:24:11;94301.69;;;20.83;80.40
6833;BME280;3454;42.654;23.378;2022-08-19T04:26:37;94330.50;;;21.06;79.10
6833;BME280;3454;42.654;23.378;2022-08-19T04:29:12;94315.41;;;20.90;79.71
6833;BME280;3454;42.654;23.378;2022-08-19T04:31:38;94318.38;;;20.87;79.69
6833;BME280;3454;42.654;23.378;2022-08-19T04:34:07;94327.34;;;21.04;79.56
6833;BME280;3454;42.654;23.378;2022-08-19T04:36:35;94318.38;;;21.00;79.74
6833;BME280;3454;42.654;23.378;2022-08-19T04:39:04;94312.22;;;20.95;80.08
6833;BME280;3454;42.654;23.378;2022-08-19T04:41:30;94309.59;;;21.01;79.91
6833;BME280;3454;42.654;23.378;2022-08-19T04:44:14;94293.72;;;20.98;81.27
6833;BME280;3454;42.654;23.378;2022-08-19T04:46:44;94287.78;;;20.90;81.25
6833;BME280;3454;42.654;23.378;2022-08-19T04:49:09;94279.44;;;20.82;82.24
6833;BME280;3454;42.654;23.378;2022-08-19T04:51:35;94263.13;;;20.81;82.55
6833;BME280;3454;42.654;23.378;2022-08-19T04:54:02;94242.88;;;20.65;84.40
6833;BME280;3454;42.654;23.378;2022-08-19T04:56:28;94248.63;;;20.67;84.84
6833;BME280;3454;42.654;23.378;2022-08-19T04:58:55;94254.78;;;20.86;84.41
6833;BME280;3454;42.654;23.378;2022-08-19T05:01:24;94287.38;;;21.07;82.87
6833;BME280;3454;42.654;23.378;2022-08-19T05:03:50;94283.16;;;20.99;83.48
6833;BME280;3454;42.654;23.378;2022-08-19T05:06:17;94286.34;;;21.08;83.28
6833;BME280;3454;42.654;23.378;2022-08-19T05:08:44;94298.09;;;21.10;82.67
6833;BME280;3454;42.654;23.378;2022-08-19T05:13:38;94328.25;;;21.42;80.78
6833;BME280;3454;42.654;23.378;2022-08-19T05:16:04;94308.75;;;21.33;81.87
6833;BME280;3454;42.654;23.378;2022-08-19T05:18:30;94325.47;;;21.37;80.68
6833;BME280;3454;42.654;23.378;2022-08-19T05:21:17;94323.00;;;21.55;80.97
6833;BME280;3454;42.654;23.378;2022-08-19T05:24:02;94348.84;;;21.75;79.28
6833;BME280;3454;42.654;23.378;2022-08-19T05:26:28;94288.31;;;21.83;82.63
6833;BME280;3454;42.654;23.378;2022-08-19T05:28:54;94282.47;;;21.94;82.99
6833;BME280;3454;42.654;23.378;2022-08-19T05:31:20;94360.69;;;22.02;79.34
6833;BME280;3454;42.654;23.378;2022-08-19T05:33:47;94349.78;;;21.94;78.98
6833;BME280;3454;42.654;23.378;2022-08-19T05:36:13;94406.78;;;22.25;76.15
6833;BME280;3454;42.654;23.378;2022-08-19T05:38:39;94362.94;;;22.30;78.29
6833;BME280;3454;42.654;23.378;2022-08-19T05:41:13;94358.47;;;22.43;78.68
6833;BME280;3454;42.654;23.378;2022-08-19T05:43:39;94391.94;;;22.45;76.86
6833;BME280;3454;42.654;23.378;2022-08-19T05:46:07;94425.34;;;22.66;74.69
6833;BME280;3454;42.654;23.378;2022-08-19T05:48:34;94430.63;;;22.78;74.30
6833;BME280;3454;42.654;23.378;2022-08-19T05:51:05;94440.38;;;22.82;73.20
6833;BME280;3454;42.654;23.378;2022-08-19T05:53:32;94397.66;;;22.85;75.94
6833;BME280;3454;42.654;23.378;2022-08-19T05:56:13;94383.84;;;22.91;75.82
6833;BME280;3454;42.654;23.378;2022-08-19T05:58:42;94408.81;;;23.16;75.22
6833;BME280;3454;42.654;23.378;2022-08-19T06:01:14;94439.09;;;23.22;73.33
6833;BME280;3454;42.654;23.378;2022-08-19T06:03:40;94435.53;;;23.42;73.33
6833;BME280;3454;42.654;23.378;2022-08-19T06:06:07;94445.03;;;23.72;73.06
6833;BME280;3454;42.654;23.378;2022-08-19T06:08:34;94482.41;;;23.71;70.97
6833;BME280;3454;42.654;23.378;2022-08-19T06:13:39;94484.53;;;23.99;69.96
6833;BME280;3454;42.654;23.378;2022-08-19T06:16:05;94454.81;;;24.13;72.22
6833;BME280;3454;42.654;23.378;2022-08-19T06:18:30;94483.22;;;24.26;70.93
6833;BME280;3454;42.654;23.378;2022-08-19T06:20:56;94528.94;;;24.34;68.39
6833;BME280;3454;42.654;23.378;2022-08-19T06:23:22;94533.19;;;24.28;67.90
6833;BME280;3454;42.654;23.378;2022-08-19T06:25:47;94510.88;;;24.39;68.58
6833;BME280;3454;42.654;23.378;2022-08-19T06:28:13;94505.47;;;24.40;69.16
6833;BME280;3454;42.654;23.378;2022-08-19T06:30:38;94479.72;;;24.21;69.92
6833;BME280;3454;42.654;23.378;2022-08-19T06:33:04;94468.44;;;24.27;70.81
6833;BME280;3454;42.654;23.378;2022-08-19T06:35:29;94454.66;;;24.26;71.65
6833;BME280;3454;42.654;23.378;2022-08-19T06:37:55;94489.75;;;24.35;69.98
6833;BME280;3454;42.654;23.378;2022-08-19T06:40:21;94513.69;;;24.55;68.69
6833;BME280;3454;42.654;23.378;2022-08-19T06:42:47;94501.25;;;24.57;69.11
6833;BME280;3454;42.654;23.378;2022-08-19T06:45:12;94478.13;;;24.67;69.45
6833;BME280;3454;42.654;23.378;2022-08-19T06:47:38;94445.66;;;24.76;71.56
6833;BME280;3454;42.654;23.378;2022-08-19T06:50:04;94471.34;;;24.84;70.08
6833;BME280;3454;42.654;23.378;2022-08-19T06:52:31;94508.38;;;24.98;68.29
6833;BME280;3454;42.654;23.378;2022-08-19T06:54:57;94416.06;;;25.01;72.83
6833;BME280;3454;42.654;23.378;2022-08-19T06:57:24;94453.50;;;25.11;71.33
6833;BME280;3454;42.654;23.378;2022-08-19T06:59:51;94455.47;;;25.16;71.36
6833;BME280;3454;42.654;23.378;2022-08-19T07:02:17;94519.53;;;25.28;68.39
6833;BME280;3454;42.654;23.378;2022-08-19T07:04:43;94546.63;;;25.39;66.86
6833;BME280;3454;42.654;23.378;2022-08-19T07:07:11;94532.16;;;25.43;67.52
6833;BME280;3454;42.654;23.378;2022-08-19T07:09:41;94585.06;;;25.55;65.13
6833;BME280;3454;42.654;23.378;2022-08-19T07:12:09;94573.50;;;25.51;65.45
6833;BME280;3454;42.654;23.378;2022-08-19T07:14:36;94472.06;;;25.56;70.22
6833;BME280;3454;42.654;23.378;2022-08-19T07:17:04;94483.94;;;25.63;69.90
6833;BME280;3454;42.654;23.378;2022-08-19T07:19:31;94550.22;;;25.79;66.64
6833;BME280;3454;42.654;23.378;2022-08-19T07:21:57;94574.47;;;25.91;65.13
6833;BME280;3454;42.654;23.378;2022-08-19T07:24:27;94553.16;;;25.94;66.06
6833;BME280;3454;42.654;23.378;2022-08-19T07:26:55;94579.91;;;25.90;64.40
6833;BME280;3454;42.654;23.378;2022-08-19T07:29:22;94653.25;;;26.16;60.93
6833;BME280;3454;42.654;23.378;2022-08-19T07:31:50;94620.41;;;26.15;61.70
6833;BME280;3454;42.654;23.378;2022-08-19T07:34:16;94553.09;;;26.24;64.82
6833;BME280;3454;42.654;23.378;2022-08-19T07:36:43;94576.28;;;26.48;63.88
6833;BME280;3454;42.654;23.378;2022-08-19T07:39:15;94633.66;;;26.72;61.44
6833;BME280;3454;42.654;23.378;2022-08-19T07:41:42;94609.81;;;26.80;62.15
6833;BME280;3454;42.654;23.378;2022-08-19T07:44:09;94630.91;;;26.90;60.86
6833;BME280;3454;42.654;23.378;2022-08-19T07:46:37;94679.63;;;27.24;58.45
6833;BME280;3454;42.654;23.378;2022-08-19T07:49:06;94724.91;;;27.29;56.01
6833;BME280;3454;42.654;23.378;2022-08-19T07:51:33;94739.03;;;27.17;54.74
6833;BME280;3454;42.654;23.378;2022-08-19T07:53:59;94703.84;;;27.08;55.87
6833;BME280;3454;42.654;23.378;2022-08-19T07:56:25;94699.66;;;27.07;55.87
6833;BME280;3454;42.654;23.378;2022-08-19T07:58:52;94708.13;;;27.14;54.58
6833;BME280;3454;42.654;23.378;2022-08-19T08:01:24;94693.03;;;27.16;55.79
6833;BME280;3454;42.654;23.378;2022-08-19T08:03:52;94726.41;;;27.37;54.77
6833;BME280;3454;42.654;23.378;2022-08-19T08:06:37;94732.28;;;27.44;54.27
6833;BME280;3454;42.654;23.378;2022-08-19T08:09:25;94695.28;;;27.35;55.52
6833;BME280;3454;42.654;23.378;2022-08-19T08:11:59;94668.56;;;27.73;56.53
6833;BME280;3454;42.654;23.378;2022-08-19T08:14:30;94687.41;;;27.75;55.40
6833;BME280;3454;42.654;23.378;2022-08-19T08:16:56;94715.13;;;27.76;54.50
6833;BME280;3454;42.654;23.378;2022-08-19T08:19:25;94716.94;;;27.76;54.01
6833;BME280;3454;42.654;23.378;2022-08-19T08:21:53;94723.63;;;27.83;53.59
6833;BME280;3454;42.654;23.378;2022-08-19T08:24:19;94721.84;;;28.00;53.57
6833;BME280;3454;42.654;23.378;2022-08-19T08:26:45;94784.91;;;28.32;51.06
6833;BME280;3454;42.654;23.378;2022-08-19T08:29:11;94734.91;;;28.45;51.96
6833;BME280;3454;42.654;23.378;2022-08-19T08:31:39;94710.66;;;28.50;52.88
6833;BME280;3454;42.654;23.378;2022-08-19T08:34:06;94681.38;;;28.53;53.63
6833;BME280;3454;42.654;23.378;2022-08-19T08:36:32;94720.78;;;28.79;52.05
6833;BME280;3454;42.654;23.378;2022-08-19T08:38:59;94716.13;;;29.03;52.36
6833;BME280;3454;42.654;23.378;2022-08-19T08:43:56;94718.53;;;29.43;51.83
6833;BME280;3454;42.654;23.378;2022-08-19T08:46:39;94864.63;;;29.19;46.97
6833;BME280;3454;42.654;23.378;2022-08-19T08:49:31;94678.13;;;29.17;47.50
6833;BME280;3454;42.654;23.378;2022-08-19T08:52:06;94690.22;;;29.23;45.45
6833;BME280;3454;42.654;23.378;2022-08-19T08:54:44;94696.50;;;29.44;43.32
6833;BME280;3454;42.654;23.378;2022-08-19T08:57:18;94684.56;;;29.53;43.20
6833;BME280;3454;42.654;23.378;2022-08-19T08:59:47;94642.06;;;29.72;44.35
6833;BME280;3454;42.654;23.378;2022-08-19T09:02:18;94670.63;;;29.96;43.61
6833;BME280;3454;42.654;23.378;2022-08-19T09:04:43;94672.94;;;30.24;42.79
6833;BME280;3454;42.654;23.378;2022-08-19T09:09:53;94647.34;;;30.78;43.73
6833;BME280;3454;42.654;23.378;2022-08-19T09:12:45;94627.56;;;31.07;44.33
6833;BME280;3454;42.654;23.378;2022-08-19T09:15:17;94675.19;;;31.30;41.52
6833;BME280;3454;42.654;23.378;2022-08-19T09:17:43;94675.34;;;31.71;41.22
6833;BME280;3454;42.654;23.378;2022-08-19T09:22:41;94679.13;;;32.05;40.14
6833;BME280;3454;42.654;23.378;2022-08-19T09:25:11;94657.28;;;32.09;40.88
6833;BME280;3454;42.654;23.378;2022-08-19T09:27:43;94724.94;;;32.39;37.71
6833;BME280;3454;42.654;23.378;2022-08-19T09:30:21;94709.16;;;32.49;37.19
6833;BME280;3454;42.654;23.378;2022-08-19T09:32:48;94694.13;;;32.55;37.17
6833;BME280;3454;42.654;23.378;2022-08-19T09:35:14;94744.38;;;32.18;34.70
6833;BME280;3454;42.654;23.378;2022-08-19T09:37:41;94710.97;;;32.74;33.92
6833;BME280;3454;42.654;23.378;2022-08-19T09:40:08;94733.91;;;32.78;32.63
6833;BME280;3454;42.654;23.378;2022-08-19T09:42:34;94693.59;;;32.53;34.07
6833;BME280;3454;42.654;23.378;2022-08-19T09:45:00;94687.56;;;32.47;33.65
6833;BME280;3454;42.654;23.378;2022-08-19T09:47:26;94695.16;;;32.39;33.06
6833;BME280;3454;42.654;23.378;2022-08-19T09:49:51;94681.75;;;32.05;33.31
6833;BME280;3454;42.654;23.378;2022-08-19T09:52:17;94680.19;;;32.64;33.35
6833;BME280;3454;42.654;23.378;2022-08-19T09:54:43;94698.63;;;32.59;32.31
6833;BME280;3454;42.654;23.378;2022-08-19T09:57:08;94683.34;;;32.66;32.73
6833;BME280;3454;42.654;23.378;2022-08-19T09:59:34;94697.28;;;32.37;31.99
6833;BME280;3454;42.654;23.378;2022-08-19T10:02:00;94692.31;;;32.55;31.94
6833;BME280;3454;42.654;23.378;2022-08-19T10:04:33;94698.47;;;33.30;30.83
6833;BME280;3454;42.654;23.378;2022-08-19T10:07:17;94679.50;;;33.28;31.61
6833;BME280;3454;42.654;23.378;2022-08-19T10:09:42;94694.03;;;33.20;30.63
6833;BME280;3454;42.654;23.378;2022-08-19T10:12:08;94671.03;;;33.41;31.29
6833;BME280;3454;42.654;23.378;2022-08-19T10:14:34;94668.38;;;33.51;30.25
6833;BME280;3454;42.654;23.378;2022-08-19T10:17:00;94662.75;;;33.67;31.29
6833;BME280;3454;42.654;23.378;2022-08-19T10:19:27;94680.13;;;33.68;30.58
6833;BME280;3454;42.654;23.378;2022-08-19T10:21:57;94666.06;;;33.83;30.93
6833;BME280;3454;42.654;23.378;2022-08-19T10:24:23;94662.22;;;34.09;30.94
6833;BME280;3454;42.654;23.378;2022-08-19T10:26:49;94700.13;;;34.62;29.15
6833;BME280;3454;42.654;23.378;2022-08-19T10:29:15;94681.56;;;34.33;29.89
6833;BME280;3454;42.654;23.378;2022-08-19T10:31:41;94675.22;;;34.34;29.35
6833;BME280;3454;42.654;23.378;2022-08-19T10:34:08;94649.63;;;34.63;30.09
6833;BME280;3454;42.654;23.378;2022-08-19T10:36:36;94667.75;;;34.75;29.76
6833;BME280;3454;42.654;23.378;2022-08-19T10:39:07;94674.94;;;34.98;28.85
6833;BME280;3454;42.654;23.378;2022-08-19T10:41:35;94661.34;;;34.81;29.36
6833;BME280;3454;42.654;23.378;2022-08-19T10:44:04;94649.63;;;34.63;29.69
6833;BME280;3454;42.654;23.378;2022-08-19T10:46:31;94648.53;;;34.64;29.47
6833;BME280;3454;42.654;23.378;2022-08-19T10:48:59;94647.28;;;34.86;30.03
6833;BME280;3454;42.654;23.378;2022-08-19T10:51:24;94663.56;;;35.64;29.33
6833;BME280;3454;42.654;23.378;2022-08-19T10:54:09;94682.19;;;35.35;27.88
6833;BME280;3454;42.654;23.378;2022-08-19T10:56:35;94656.25;;;35.37;28.37
6833;BME280;3454;42.654;23.378;2022-08-19T10:59:22;94663.94;;;35.76;28.70
6833;BME280;3454;42.654;23.378;2022-08-19T11:01:50;94656.97;;;36.03;28.44
6833;BME280;3454;42.654;23.378;2022-08-19T11:04:17;94664.44;;;35.17;28.07
6833;BME280;3454;42.654;23.378;2022-08-19T11:06:44;94620.97;;;34.76;29.06
6833;BME280;3454;42.654;23.378;2022-08-19T11:09:14;94632.44;;;34.90;28.74
6833;BME280;3454;42.654;23.378;2022-08-19T11:11:41;94652.81;;;35.36;28.27
6833;BME280;3454;42.654;23.378;2022-08-19T11:14:09;94643.03;;;35.13;29.00
6833;BME280;3454;42.654;23.378;2022-08-19T11:16:35;94610.16;;;35.01;29.41
6833;BME280;3454;42.654;23.378;2022-08-19T11:19:02;94636.75;;;35.70;28.72
6833;BME280;3454;42.654;23.378;2022-08-19T11:21:33;94626.56;;;36.14;28.63
6833;BME280;3454;42.654;23.378;2022-08-19T11:24:12;94603.28;;;36.30;29.43
6833;BME280;3454;42.654;23.378;2022-08-19T11:26:39;94631.47;;;36.40;28.66
6833;BME280;3454;42.654;23.378;2022-08-19T11:29:08;94639.28;;;36.63;27.80
6833;BME280;3454;42.654;23.378;2022-08-19T11:31:37;94614.22;;;36.10;28.61
6833;BME280;3454;42.654;23.378;2022-08-19T11:34:07;94619.97;;;36.31;28.42
6833;BME280;3454;42.654;23.378;2022-08-19T11:36:33;94589.44;;;36.33;29.21
6833;BME280;3454;42.654;23.378;2022-08-19T11:39:00;94602.97;;;36.50;28.79
6833;BME280;3454;42.654;23.378;2022-08-19T11:41:27;94579.03;;;36.23;29.17
6833;BME280;3454;42.654;23.378;2022-08-19T11:43:53;94619.81;;;35.53;27.63
6833;BME280;3454;42.654;23.378;2022-08-19T11:46:21;94601.16;;;35.81;28.32
6833;BME280;3454;42.654;23.378;2022-08-19T11:48:47;94581.84;;;35.62;28.94
6833;BME280;3454;42.654;23.378;2022-08-19T11:51:23;94573.53;;;36.19;29.07
6833;BME280;3454;42.654;23.378;2022-08-19T11:53:53;94594.09;;;35.90;28.08
6833;BME280;3454;42.654;23.378;2022-08-19T11:56:19;94577.47;;;35.53;29.17
6833;BME280;3454;42.654;23.378;2022-08-19T11:58:45;94593.97;;;35.82;28.20
6833;BME280;3454;42.654;23.378;2022-08-19T12:01:13;94555.75;;;36.06;29.36
6833;BME280;3454;42.654;23.378;2022-08-19T12:03:41;94587.09;;;36.91;28.06
6833;BME280;3454;42.654;23.378;2022-08-19T12:06:11;94573.31;;;37.43;28.45
6833;BME280;3454;42.654;23.378;2022-08-19T12:08:39;94580.97;;;37.80;28.24
6833;BME280;3454;42.654;23.378;2022-08-19T12:11:05;94599.25;;;37.46;27.16
6833;BME280;3454;42.654;23.378;2022-08-19T12:13:34;94562.72;;;37.65;28.13
6833;BME280;3454;42.654;23.378;2022-08-19T12:16:00;94550.63;;;36.83;28.55
6833;BME280;3454;42.654;23.378;2022-08-19T12:18:26;94538.13;;;36.29;28.96
6833;BME280;3454;42.654;23.378;2022-08-19T12:20:53;94557.63;;;36.65;28.45
6833;BME280;3454;42.654;23.378;2022-08-19T12:23:22;94573.13;;;36.99;27.32
6833;BME280;3454;42.654;23.378;2022-08-19T12:25:49;94550.16;;;36.40;28.01
6833;BME280;3454;42.654;23.378;2022-08-19T12:28:22;94529.38;;;35.83;28.52
6833;BME280;3454;42.654;23.378;2022-08-19T12:30:48;94521.00;;;35.94;28.49
6833;BME280;3454;42.654;23.378;2022-08-19T12:33:16;94514.03;;;36.58;28.60
6833;BME280;3454;42.654;23.378;2022-08-19T12:35:42;94531.50;;;36.86;28.22
6833;BME280;3454;42.654;23.378;2022-08-19T12:38:09;94517.97;;;37.23;28.81
6833;BME280;3454;42.654;23.378;2022-08-19T12:40:35;94535.47;;;37.24;27.88
6833;BME280;3454;42.654;23.378;2022-08-19T12:43:00;94541.94;;;37.81;27.85
6833;BME280;3454;42.654;23.378;2022-08-19T12:45:26;94548.34;;;38.11;27.56
6833;BME280;3454;42.654;23.378;2022-08-19T12:47:52;94526.50;;;38.14;28.03
6833;BME280;3454;42.654;23.378;2022-08-19T12:50:18;94540.88;;;37.91;27.24
6833;BME280;3454;42.654;23.378;2022-08-19T12:52:47;94554.66;;;38.45;27.19
6833;BME280;3454;42.654;23.378;2022-08-19T12:55:14;94579.16;;;38.34;25.84
6833;BME280;3454;42.654;23.378;2022-08-19T12:57:39;94579.03;;;37.95;25.72
6833;BME280;3454;42.654;23.378;2022-08-19T13:00:08;94569.13;;;37.87;26.02
6833;BME280;3454;42.654;23.378;2022-08-19T13:02:39;94544.16;;;38.10;26.71
6833;BME280;3454;42.654;23.378;2022-08-19T13:05:08;94530.59;;;38.50;27.51
6833;BME280;3454;42.654;23.378;2022-08-19T13:07:34;94517.91;;;38.78;27.66
6833;BME280;3454;42.654;23.378;2022-08-19T13:10:00;94564.81;;;38.74;26.12
6833;BME280;3454;42.654;23.378;2022-08-19T13:12:25;94539.38;;;38.90;26.85
6833;BME280;3454;42.654;23.378;2022-08-19T13:14:53;94544.59;;;39.12;26.39
6833;BME280;3454;42.654;23.378;2022-08-19T13:17:19;94572.50;;;39.32;25.20
6833;BME280;3454;42.654;23.378;2022-08-19T13:19:45;94553.47;;;39.08;26.19
6833;BME280;3454;42.654;23.378;2022-08-19T13:22:10;94544.16;;;39.19;26.52
6833;BME280;3454;42.654;23.378;2022-08-19T13:24:36;94558.72;;;39.30;26.02
6833;BME280;3454;42.654;23.378;2022-08-19T13:27:02;94551.13;;;39.06;25.21
6833;BME280;3454;42.654;23.378;2022-08-19T13:29:28;94525.78;;;38.61;26.35